Time;durP1;ratioP1;P1;durP2;ratioP2;P2;SDS_P1;SDS_P2;PMS_P1;PMS_P2;Temp;Humidity;BMP_temperature;BMP_pressure;BME280_temperature;BME280_humidity;BME280_pressure;Samples;Min_cycle;Max_cycle;Signal;HPM_P1;HPM_P2
2021/12/27 00:02:08;;;;;;;24.80;20.00;;;-0.10;99.90;;;;;;4985925;28;20122;-78
2021/12/27 00:04:35;;;;;;;23.88;18.40;;;0.00;99.90;;;;;;4989760;28;20041;-78
2021/12/27 00:07:01;;;;;;;24.33;18.05;;;0.00;99.90;;;;;;5020651;28;20045;-78
2021/12/27 00:09:27;;;;;;;26.42;18.80;;;0.00;99.90;;;;;;5000256;28;20136;-78
2021/12/27 00:11:53;;;;;;;26.45;17.35;;;0.00;99.90;;;;;;5016767;28;20043;-78
2021/12/27 00:14:19;;;;;;;25.05;18.27;;;0.00;99.90;;;;;;4999142;28;20045;-78
2021/12/27 00:16:45;;;;;;;25.27;18.58;;;0.00;99.90;;;;;;5018311;28;20068;-78
2021/12/27 00:19:11;;;;;;;27.30;18.98;;;0.00;99.90;;;;;;5012902;28;20053;-78
2021/12/27 00:21:37;;;;;;;25.60;17.95;;;0.00;99.90;;;;;;4981636;28;20207;-78
2021/12/27 00:24:05;;;;;;;26.58;19.10;;;0.00;99.90;;;;;;5010757;28;20072;-78
2021/12/27 00:26:31;;;;;;;25.50;19.67;;;0.10;99.90;;;;;;4944483;28;20151;-78
2021/12/27 00:28:57;;;;;;;28.65;21.00;;;0.10;99.90;;;;;;5010178;28;20517;-78
2021/12/27 00:31:23;;;;;;;22.77;16.45;;;0.00;99.90;;;;;;4971408;28;20048;-78
2021/12/27 00:33:49;;;;;;;22.83;17.13;;;0.10;99.90;;;;;;4977106;28;20847;-78
2021/12/27 00:36:15;;;;;;;26.42;18.00;;;0.10;99.90;;;;;;4994232;28;20057;-78
2021/12/27 00:38:41;;;;;;;26.67;18.92;;;0.10;99.90;;;;;;5023454;28;20037;-79
2021/12/27 00:41:07;;;;;;;25.63;18.20;;;0.10;99.90;;;;;;4999023;28;20041;-78
2021/12/27 00:43:34;;;;;;;26.05;18.70;;;0.10;99.90;;;;;;4994244;28;20045;-78
2021/12/27 00:46:00;;;;;;;25.10;19.85;;;0.10;99.90;;;;;;4977258;28;20052;-78
2021/12/27 00:48:26;;;;;;;26.02;19.10;;;0.10;99.90;;;;;;4994985;28;20509;-79
2021/12/27 00:50:52;;;;;;;25.85;19.83;;;0.00;99.90;;;;;;4957857;28;20524;-78
2021/12/27 00:53:18;;;;;;;27.90;20.25;;;0.10;99.90;;;;;;5011473;28;20049;-78
2021/12/27 00:55:44;;;;;;;25.23;19.85;;;0.10;99.90;;;;;;5002019;28;20042;-78
2021/12/27 00:58:11;;;;;;;25.58;19.63;;;0.20;99.90;;;;;;4991680;28;20394;-78
2021/12/27 01:00:37;;;;;;;25.13;19.27;;;0.20;99.90;;;;;;4991477;28;20081;-78
2021/12/27 01:03:03;;;;;;;26.45;19.67;;;0.10;99.90;;;;;;5026625;28;20161;-78
2021/12/27 01:05:29;;;;;;;25.00;19.23;;;0.10;99.90;;;;;;4993808;28;20092;-78
2021/12/27 01:07:56;;;;;;;27.45;20.05;;;0.20;99.90;;;;;;5000430;28;20509;-79
2021/12/27 01:16:02;;;;;;;26.25;20.48;;;0.20;99.90;;;;;;5008278;28;20045;-78
2021/12/27 01:18:28;;;;;;;28.40;21.67;;;0.20;99.90;;;;;;5008221;28;20104;-78
2021/12/27 01:20:54;;;;;;;26.83;19.95;;;0.20;99.90;;;;;;5025127;28;20047;-79
2021/12/27 01:23:21;;;;;;;28.17;19.27;;;0.20;99.90;;;;;;5009460;28;20051;-78
2021/12/27 01:25:47;;;;;;;33.88;20.17;;;0.20;99.90;;;;;;4963036;28;20505;-78
2021/12/27 01:28:13;;;;;;;28.40;19.85;;;0.20;99.90;;;;;;4998815;28;20115;-78
2021/12/27 01:30:47;;;;;;;25.58;18.45;;;0.20;99.90;;;;;;4999231;28;20102;-78
2021/12/27 01:33:20;;;;;;;22.52;16.25;;;0.20;99.90;;;;;;4988008;28;20056;-78
2021/12/27 01:35:47;;;;;;;29.27;20.33;;;0.20;99.90;;;;;;5019148;28;20065;-78
2021/12/27 01:38:14;;;;;;;29.00;19.17;;;0.20;99.90;;;;;;5010963;28;20107;-78
2021/12/27 01:40:43;;;;;;;25.90;19.35;;;0.20;99.90;;;;;;4996630;28;20045;-78
2021/12/27 01:43:16;;;;;;;28.38;19.55;;;0.20;99.90;;;;;;5040447;28;20459;-78
2021/12/27 01:45:45;;;;;;;27.98;21.10;;;0.20;99.90;;;;;;5026335;28;20460;-78
2021/12/27 01:48:13;;;;;;;29.67;21.27;;;0.20;99.90;;;;;;5030711;28;20513;-79
2021/12/27 01:50:42;;;;;;;30.27;21.55;;;0.20;99.90;;;;;;4979714;28;20053;-78
2021/12/27 01:53:09;;;;;;;27.13;20.17;;;0.20;99.90;;;;;;5026564;28;20053;-78
2021/12/27 01:55:36;;;;;;;28.80;21.60;;;0.20;99.90;;;;;;4993867;28;20484;-78
2021/12/27 01:58:02;;;;;;;28.50;20.45;;;0.20;99.90;;;;;;5023871;28;20123;-78
2021/12/27 02:00:29;;;;;;;28.50;20.88;;;0.30;99.90;;;;;;4974596;28;20357;-78
2021/12/27 02:02:55;;;;;;;30.33;21.80;;;0.30;99.90;;;;;;4997840;28;20077;-78
2021/12/27 02:05:21;;;;;;;27.20;19.65;;;0.20;99.90;;;;;;4994225;28;20043;-78
2021/12/27 02:07:47;;;;;;;27.10;20.15;;;0.20;99.90;;;;;;5008823;28;20549;-78
2021/12/27 02:10:14;;;;;;;27.45;19.95;;;0.30;99.90;;;;;;5018865;28;20052;-78
2021/12/27 02:12:41;;;;;;;28.73;18.30;;;0.30;99.90;;;;;;4996498;28;20050;-78
2021/12/27 02:15:09;;;;;;;30.80;22.17;;;0.30;99.90;;;;;;5019121;28;20046;-78
2021/12/27 02:17:38;;;;;;;30.70;20.60;;;0.30;99.90;;;;;;5012519;28;20048;-78
2021/12/27 02:20:10;;;;;;;32.08;23.45;;;0.30;99.90;;;;;;4996716;28;20049;-79
2021/12/27 02:22:39;;;;;;;30.15;21.08;;;0.30;99.90;;;;;;4986585;28;20382;-78
2021/12/27 02:25:07;;;;;;;30.08;23.60;;;0.30;99.90;;;;;;4997424;28;20045;-78
2021/12/27 02:27:34;;;;;;;28.92;21.55;;;0.30;99.90;;;;;;4996983;28;20077;-78
2021/12/27 02:30:01;;;;;;;29.42;22.15;;;0.30;99.90;;;;;;5012495;28;20052;-78
2021/12/27 02:32:27;;;;;;;25.65;19.33;;;0.30;99.90;;;;;;5046960;28;20041;-78
2021/12/27 02:34:53;;;;;;;30.75;23.00;;;0.30;99.90;;;;;;5013734;28;20053;-79
2021/12/27 02:37:19;;;;;;;31.08;23.13;;;0.30;99.90;;;;;;5013076;28;20095;-78
2021/12/27 02:39:45;;;;;;;29.08;22.50;;;0.30;99.90;;;;;;4995817;28;20045;-78
2021/12/27 02:42:19;;;;;;;29.63;22.45;;;0.30;99.90;;;;;;4997811;28;20045;-78
2021/12/27 02:44:45;;;;;;;28.73;22.17;;;0.30;99.90;;;;;;5029521;28;20045;-78
2021/12/27 02:47:14;;;;;;;28.80;22.50;;;0.30;99.90;;;;;;4996747;28;20056;-78
2021/12/27 02:49:40;;;;;;;28.55;21.85;;;0.30;99.90;;;;;;5012659;28;20131;-78
2021/12/27 02:52:07;;;;;;;30.40;23.15;;;0.30;99.90;;;;;;5008915;28;20124;-78
2021/12/27 02:54:33;;;;;;;30.50;23.05;;;0.30;99.90;;;;;;5012402;28;20045;-78
2021/12/27 02:56:59;;;;;;;30.25;23.50;;;0.30;99.90;;;;;;4980815;28;20045;-78
2021/12/27 02:59:25;;;;;;;29.08;21.73;;;0.40;99.90;;;;;;5012497;28;20045;-78
2021/12/27 03:01:51;;;;;;;30.38;22.35;;;0.30;99.90;;;;;;4995886;28;20057;-79
2021/12/27 03:04:17;;;;;;;29.30;21.45;;;0.30;99.90;;;;;;4993261;28;20046;-78
2021/12/27 03:06:44;;;;;;;29.48;22.95;;;0.30;99.90;;;;;;5009632;28;20045;-78
2021/12/27 03:09:10;;;;;;;28.63;20.98;;;0.30;99.90;;;;;;5009315;28;20053;-79
2021/12/27 03:11:36;;;;;;;31.05;24.50;;;0.30;99.90;;;;;;5008136;28;20049;-78
2021/12/27 03:14:02;;;;;;;31.00;23.33;;;0.30;99.90;;;;;;5010055;28;20045;-78
2021/12/27 03:16:31;;;;;;;30.00;23.27;;;0.40;99.90;;;;;;4978328;28;20214;-78
2021/12/27 03:18:57;;;;;;;27.92;21.17;;;0.40;99.90;;;;;;4994909;28;20449;-78
2021/12/27 03:21:23;;;;;;;31.80;22.77;;;0.40;99.90;;;;;;4961895;28;20521;-78
2021/12/27 03:23:50;;;;;;;29.10;21.40;;;0.40;99.90;;;;;;4994467;28;20044;-78
2021/12/27 03:26:16;;;;;;;29.85;22.33;;;0.40;99.90;;;;;;4993846;28;20513;-78
2021/12/27 03:28:43;;;;;;;29.92;22.10;;;0.40;99.90;;;;;;4979195;28;20060;-78
2021/12/27 03:31:10;;;;;;;33.22;22.85;;;0.40;99.90;;;;;;4992486;28;20052;-78
2021/12/27 03:33:37;;;;;;;29.42;23.27;;;0.40;99.90;;;;;;5014523;28;20528;-78
2021/12/27 03:36:06;;;;;;;31.98;22.63;;;0.50;99.90;;;;;;5011004;28;20159;-78
2021/12/27 03:38:35;;;;;;;28.92;23.10;;;0.50;99.90;;;;;;4978080;28;20115;-78
2021/12/27 03:41:06;;;;;;;28.17;21.05;;;0.50;99.90;;;;;;4994913;28;20050;-78
2021/12/27 03:43:32;;;;;;;30.83;23.20;;;0.50;99.90;;;;;;4976924;28;20041;-78
2021/12/27 03:45:58;;;;;;;30.67;20.95;;;0.50;99.90;;;;;;5011962;28;20102;-78
2021/12/27 03:48:25;;;;;;;32.97;23.75;;;0.40;99.90;;;;;;5013960;28;20077;-78
2021/12/27 03:50:52;;;;;;;28.38;21.58;;;0.50;99.90;;;;;;5013314;28;20124;-78
2021/12/27 03:53:18;;;;;;;31.15;21.83;;;0.50;99.90;;;;;;4993864;28;20069;-78
2021/12/27 03:55:44;;;;;;;31.70;24.52;;;0.50;99.90;;;;;;5013255;28;20482;-78
2021/12/27 03:58:27;;;;;;;29.23;20.70;;;0.50;99.90;;;;;;5007280;28;20042;-78
2021/12/27 04:03:22;;;;;;;31.85;23.95;;;0.50;99.90;;;;;;5000349;28;20049;-78
2021/12/27 04:05:48;;;;;;;29.63;23.35;;;0.50;99.90;;;;;;5022472;28;20045;-79
2021/12/27 04:08:17;;;;;;;31.15;24.27;;;0.50;99.90;;;;;;5012089;28;20037;-79
2021/12/27 04:10:45;;;;;;;27.00;20.13;;;0.50;99.90;;;;;;4994344;28;20513;-78
2021/12/27 04:13:12;;;;;;;32.38;22.60;;;0.50;99.90;;;;;;4977642;28;20072;-78
2021/12/27 04:15:39;;;;;;;29.45;22.45;;;0.50;99.90;;;;;;5009714;28;20041;-79
2021/12/27 04:18:09;;;;;;;28.92;22.35;;;0.60;99.90;;;;;;4995616;28;20445;-78
2021/12/27 04:20:35;;;;;;;30.48;23.80;;;0.50;99.90;;;;;;4995498;28;20069;-78
2021/12/27 04:23:01;;;;;;;27.50;19.73;;;0.50;99.90;;;;;;5038398;28;20123;-78
2021/12/27 04:25:27;;;;;;;31.75;24.63;;;0.50;99.90;;;;;;4998900;28;20049;-78
2021/12/27 04:27:53;;;;;;;29.08;22.77;;;0.60;99.90;;;;;;4961747;28;20057;-78
2021/12/27 04:30:21;;;;;;;32.75;24.08;;;0.50;99.90;;;;;;4976757;28;20053;-78
2021/12/27 04:32:49;;;;;;;29.92;22.42;;;0.60;99.90;;;;;;4984800;28;20383;-78
2021/12/27 04:35:17;;;;;;;28.58;22.45;;;0.50;99.90;;;;;;4978014;28;20065;-78
2021/12/27 04:37:44;;;;;;;29.42;23.23;;;0.60;99.90;;;;;;4978539;28;20562;-78
2021/12/27 04:40:12;;;;;;;33.47;23.90;;;0.60;99.90;;;;;;4998580;28;20045;-78
2021/12/27 04:42:42;;;;;;;30.23;22.35;;;0.60;99.90;;;;;;4992689;28;20103;-78
2021/12/27 04:45:11;;;;;;;32.00;23.55;;;0.60;99.90;;;;;;5036822;28;20484;-79
2021/12/27 04:47:41;;;;;;;29.60;22.60;;;0.60;99.90;;;;;;4985385;28;20492;-78
2021/12/27 04:50:08;;;;;;;32.13;24.52;;;0.60;99.90;;;;;;4996861;28;20087;-79
2021/12/27 04:52:35;;;;;;;31.02;23.80;;;0.60;99.90;;;;;;5012512;28;20483;-78
2021/12/27 04:55:01;;;;;;;32.55;23.35;;;0.60;99.90;;;;;;4976912;28;20156;-79
2021/12/27 04:57:28;;;;;;;31.42;22.33;;;0.60;99.90;;;;;;4977070;28;20072;-79
2021/12/27 04:59:54;;;;;;;31.38;23.75;;;0.60;99.90;;;;;;4977288;28;20041;-79
2021/12/27 05:02:20;;;;;;;30.33;21.52;;;0.60;99.90;;;;;;4991107;28;20140;-79
2021/12/27 05:04:46;;;;;;;31.38;23.58;;;0.60;99.90;;;;;;5011250;28;20472;-78
2021/12/27 05:07:12;;;;;;;34.35;25.02;;;0.60;99.90;;;;;;4964540;28;20067;-79
2021/12/27 05:09:39;;;;;;;33.78;25.25;;;0.60;99.90;;;;;;5028849;28;20045;-79
2021/12/27 05:12:06;;;;;;;32.08;25.15;;;0.60;99.90;;;;;;4992574;28;20532;-78
2021/12/27 05:14:32;;;;;;;31.90;24.08;;;0.60;99.90;;;;;;4994576;28;20081;-78
2021/12/27 05:16:59;;;;;;;31.48;21.10;;;0.50;99.90;;;;;;4993043;28;20046;-78
2021/12/27 05:19:25;;;;;;;32.70;23.67;;;0.60;99.90;;;;;;5022878;28;20046;-78
2021/12/27 05:21:51;;;;;;;33.03;23.70;;;0.60;99.90;;;;;;5002804;28;20155;-78
2021/12/27 05:24:18;;;;;;;34.70;24.33;;;0.60;99.90;;;;;;4976890;28;20541;-79
2021/12/27 05:26:44;;;;;;;33.67;23.90;;;0.60;99.90;;;;;;4976956;28;20052;-79
2021/12/27 05:29:10;;;;;;;32.20;24.35;;;0.60;99.90;;;;;;4980466;28;20048;-79
2021/12/27 05:31:37;;;;;;;32.45;23.77;;;0.60;99.90;;;;;;4994555;28;20050;-77
2021/12/27 05:34:04;;;;;;;37.08;25.52;;;0.60;99.90;;;;;;4975433;28;20402;-78
2021/12/27 05:36:30;;;;;;;34.17;23.92;;;0.60;99.90;;;;;;4976912;28;20049;-78
2021/12/27 05:38:56;;;;;;;34.42;24.35;;;0.60;99.90;;;;;;5007080;28;20044;-79
2021/12/27 05:41:22;;;;;;;33.92;24.75;;;0.60;99.90;;;;;;4992881;28;20030;-78
2021/12/27 05:43:48;;;;;;;32.63;24.23;;;0.60;99.90;;;;;;4995282;28;20072;-78
2021/12/27 05:46:14;;;;;;;34.72;25.63;;;0.60;99.90;;;;;;4980208;28;20776;-78
2021/12/27 05:48:40;;;;;;;35.83;26.08;;;0.60;99.90;;;;;;4980610;28;20052;-78
2021/12/27 05:51:06;;;;;;;34.72;24.75;;;0.60;99.90;;;;;;4983544;28;20041;-78
2021/12/27 05:53:33;;;;;;;39.15;25.38;;;0.60;99.90;;;;;;4980580;28;20045;-78
2021/12/27 05:55:59;;;;;;;35.92;26.67;;;0.70;99.90;;;;;;5015814;28;20080;-78
2021/12/27 05:58:25;;;;;;;37.38;25.85;;;0.70;99.90;;;;;;5013006;28;20077;-78
2021/12/27 06:00:52;;;;;;;40.72;26.50;;;0.60;99.90;;;;;;5014581;28;20045;-79
2021/12/27 06:03:18;;;;;;;42.30;27.38;;;0.60;99.90;;;;;;5012409;28;20056;-78
2021/12/27 06:05:46;;;;;;;36.45;25.58;;;0.60;99.90;;;;;;4980331;28;20079;-78
2021/12/27 06:08:12;;;;;;;41.92;27.77;;;0.60;99.90;;;;;;5011701;28;20130;-79
2021/12/27 06:10:39;;;;;;;39.35;27.42;;;0.70;99.90;;;;;;5045529;28;20041;-78
2021/12/27 06:13:05;;;;;;;45.42;27.92;;;0.60;99.90;;;;;;5016933;28;20785;-78
2021/12/27 06:15:31;;;;;;;40.45;28.25;;;0.70;99.90;;;;;;4978091;28;20046;-78
2021/12/27 06:17:57;;;;;;;41.17;28.50;;;0.70;99.90;;;;;;5000613;28;20048;-78
2021/12/27 06:20:24;;;;;;;44.08;28.83;;;0.60;99.90;;;;;;4979035;28;20135;-78
2021/12/27 06:22:53;;;;;;;44.28;29.67;;;0.70;99.90;;;;;;4967453;28;20042;-78
2021/12/27 06:25:19;;;;;;;45.60;27.13;;;0.60;99.90;;;;;;5018736;28;20427;-78
2021/12/27 06:27:45;;;;;;;44.97;31.02;;;0.60;99.90;;;;;;5019640;28;20156;-78
2021/12/27 06:30:13;;;;;;;43.30;28.02;;;0.60;99.90;;;;;;4997537;28;20119;-78
2021/12/27 06:32:40;;;;;;;45.78;29.80;;;0.70;99.90;;;;;;5028299;28;20056;-78
2021/12/27 06:35:10;;;;;;;41.63;26.67;;;0.70;99.90;;;;;;5004137;28;20045;-78
2021/12/27 06:37:41;;;;;;;40.72;26.65;;;0.60;99.90;;;;;;4999913;28;20045;-78
2021/12/27 06:40:08;;;;;;;47.15;29.70;;;0.70;99.90;;;;;;5028357;28;20044;-78
2021/12/27 06:42:35;;;;;;;41.25;27.63;;;0.60;99.90;;;;;;4998946;28;20045;-78
2021/12/27 06:45:01;;;;;;;49.55;31.30;;;0.70;99.90;;;;;;5004475;28;20045;-78
2021/12/27 06:47:27;;;;;;;48.85;30.27;;;0.70;99.90;;;;;;4978473;28;20048;-78
2021/12/27 06:49:54;;;;;;;49.03;31.70;;;0.70;99.90;;;;;;5025136;28;20045;-78
2021/12/27 06:52:20;;;;;;;49.13;29.90;;;0.70;99.90;;;;;;4994420;28;20053;-78
2021/12/27 06:54:47;;;;;;;46.33;28.15;;;0.70;99.90;;;;;;4978558;28;20037;-78
2021/12/27 06:57:13;;;;;;;47.15;29.80;;;0.70;99.90;;;;;;5011289;28;20058;-78
2021/12/27 06:59:39;;;;;;;46.67;29.63;;;0.70;99.90;;;;;;5018256;28;20128;-78
2021/12/27 07:02:05;;;;;;;46.53;29.20;;;0.70;99.90;;;;;;4995861;28;20556;-78
2021/12/27 07:04:32;;;;;;;46.95;29.60;;;0.70;99.90;;;;;;4999824;28;20418;-78
2021/12/27 07:06:58;;;;;;;54.83;32.50;;;0.70;99.90;;;;;;4995227;28;20042;-78
2021/12/27 07:09:25;;;;;;;43.88;29.17;;;0.70;99.90;;;;;;5011915;28;20053;-78
2021/12/27 07:11:51;;;;;;;38.60;26.92;;;0.70;99.90;;;;;;5004539;28;20049;-78
2021/12/27 07:14:17;;;;;;;46.13;29.83;;;0.70;99.90;;;;;;5033085;28;20048;-79
2021/12/27 07:16:43;;;;;;;40.95;26.15;;;0.70;99.90;;;;;;4999162;28;20053;-78
2021/12/27 07:19:10;;;;;;;42.92;29.77;;;0.70;99.90;;;;;;5012885;28;20042;-77
2021/12/27 07:21:36;;;;;;;44.63;29.73;;;0.70;99.90;;;;;;5029004;28;20056;-77
2021/12/27 07:24:02;;;;;;;49.00;31.38;;;0.80;99.90;;;;;;5010541;28;20091;-78
2021/12/27 07:26:28;;;;;;;46.92;31.58;;;0.70;99.90;;;;;;4992975;28;20198;-77
2021/12/27 07:28:54;;;;;;;46.65;28.63;;;0.70;99.90;;;;;;4976484;28;20433;-78
2021/12/27 07:31:21;;;;;;;40.35;25.63;;;0.80;99.90;;;;;;4975944;28;20041;-78
2021/12/27 07:33:47;;;;;;;46.75;30.77;;;0.80;99.90;;;;;;5022884;28;20103;-78
2021/12/27 07:36:13;;;;;;;43.15;28.02;;;0.80;99.90;;;;;;5009433;28;20052;-79
2021/12/27 07:38:41;;;;;;;46.47;28.80;;;0.80;99.90;;;;;;5008200;28;20053;-80
2021/12/27 07:41:07;;;;;;;49.40;29.77;;;0.80;99.90;;;;;;5027705;28;20045;-78
2021/12/27 07:43:33;;;;;;;47.45;29.65;;;0.80;99.90;;;;;;4979030;28;20095;-78
2021/12/27 07:45:59;;;;;;;50.42;30.75;;;0.80;99.90;;;;;;5027591;28;20104;-78
2021/12/27 07:48:25;;;;;;;52.20;30.13;;;0.80;99.90;;;;;;4993801;28;20527;-79
2021/12/27 07:50:52;;;;;;;46.85;29.90;;;0.90;99.90;;;;;;5018954;28;20634;-78
2021/12/27 07:53:18;;;;;;;46.53;27.88;;;0.80;99.90;;;;;;5002970;28;20510;-79
2021/12/27 07:55:44;;;;;;;49.65;30.33;;;0.90;99.90;;;;;;4976813;28;20046;-77
2021/12/27 07:58:10;;;;;;;60.10;30.80;;;0.90;99.90;;;;;;5007138;28;20050;-77
2021/12/27 08:00:36;;;;;;;46.72;28.67;;;0.90;99.90;;;;;;4960918;28;20128;-78
2021/12/27 08:03:03;;;;;;;48.67;30.30;;;0.90;99.90;;;;;;4998179;28;20049;-77
2021/12/27 08:05:29;;;;;;;54.22;29.30;;;0.90;99.90;;;;;;5019981;28;20085;-77
2021/12/27 08:07:55;;;;;;;59.75;32.53;;;0.90;99.90;;;;;;5007546;28;20103;-76
2021/12/27 08:10:21;;;;;;;59.47;30.80;;;0.90;99.90;;;;;;4978203;28;20050;-77
2021/12/27 08:12:47;;;;;;;54.70;30.20;;;1.00;99.90;;;;;;4993571;28;20092;-81
2021/12/27 08:15:13;;;;;;;56.25;31.58;;;1.00;99.90;;;;;;5010387;28;20053;-80
2021/12/27 08:17:39;;;;;;;61.17;32.72;;;1.00;99.90;;;;;;5009979;28;20048;-77
2021/12/27 08:20:07;;;;;;;54.28;30.55;;;0.90;99.90;;;;;;4978659;28;20048;-80
2021/12/27 08:22:34;;;;;;;58.78;32.80;;;1.00;99.90;;;;;;4994279;28;20047;-78
2021/12/27 08:25:00;;;;;;;64.18;32.05;;;1.00;99.90;;;;;;5007916;28;20114;-79
2021/12/27 08:27:28;;;;;;;57.67;33.22;;;1.00;99.90;;;;;;4976923;28;20493;-81
2021/12/27 08:29:55;;;;;;;61.25;32.38;;;1.00;99.90;;;;;;4983906;28;20079;-78
2021/12/27 08:32:21;;;;;;;58.65;31.52;;;1.10;99.90;;;;;;4983287;28;20094;-81
2021/12/27 08:34:47;;;;;;;65.13;33.42;;;1.00;99.90;;;;;;5009264;28;20044;-78
2021/12/27 08:37:13;;;;;;;63.55;31.23;;;1.00;99.90;;;;;;4979848;28;20052;-80
2021/12/27 08:39:40;;;;;;;66.55;33.88;;;1.00;99.90;;;;;;4999436;28;20041;-80
2021/12/27 08:42:07;;;;;;;64.25;31.92;;;1.00;99.90;;;;;;5015564;28;20041;-79
2021/12/27 08:44:35;;;;;;;64.15;31.70;;;1.00;99.90;;;;;;5008572;28;20128;-79
2021/12/27 08:47:02;;;;;;;75.88;36.78;;;1.10;99.90;;;;;;5025147;28;20123;-78
2021/12/27 08:49:28;;;;;;;69.65;34.40;;;1.10;99.90;;;;;;4974901;28;20049;-79
2021/12/27 08:51:54;;;;;;;78.25;35.30;;;1.00;99.90;;;;;;4993744;28;20060;-79
2021/12/27 08:54:20;;;;;;;68.22;34.55;;;1.10;99.90;;;;;;4977724;28;20041;-79
2021/12/27 08:56:47;;;;;;;80.65;35.90;;;1.10;99.90;;;;;;4993810;28;20050;-78
2021/12/27 08:59:14;;;;;;;80.20;36.70;;;1.10;99.90;;;;;;5024820;28;20045;-77
2021/12/27 09:01:40;;;;;;;77.82;35.47;;;1.10;99.90;;;;;;4993677;28;20060;-79
2021/12/27 09:04:07;;;;;;;80.85;37.38;;;1.10;99.90;;;;;;5025489;28;20525;-80
2021/12/27 09:06:35;;;;;;;81.38;38.35;;;1.20;99.90;;;;;;4989107;28;20042;-78
2021/12/27 09:09:03;;;;;;;91.82;39.72;;;1.20;99.90;;;;;;5009521;28;20446;-78
2021/12/27 09:11:29;;;;;;;84.32;37.20;;;1.20;99.90;;;;;;4992807;28;20041;-78
2021/12/27 09:13:55;;;;;;;78.60;37.47;;;1.20;99.90;;;;;;5026557;28;20048;-78
2021/12/27 09:16:21;;;;;;;84.60;36.55;;;1.20;99.90;;;;;;5007912;28;20037;-78
2021/12/27 09:18:48;;;;;;;93.93;38.97;;;1.30;99.90;;;;;;5026267;28;20572;-78
2021/12/27 09:21:14;;;;;;;83.88;37.30;;;1.30;99.90;;;;;;5008792;28;20528;-77
2021/12/27 09:23:40;;;;;;;95.22;39.13;;;1.30;99.90;;;;;;5026411;28;20791;-77
2021/12/27 09:26:06;;;;;;;83.85;39.85;;;1.40;99.90;;;;;;5026036;28;20048;-77
2021/12/27 09:28:32;;;;;;;83.30;36.75;;;1.40;99.90;;;;;;4993054;28;20065;-77
2021/12/27 09:30:59;;;;;;;85.40;37.60;;;1.40;99.90;;;;;;4992930;28;20684;-77
2021/12/27 09:33:25;;;;;;;100.18;38.85;;;1.50;99.90;;;;;;5025621;28;20053;-77
2021/12/27 09:35:52;;;;;;;100.88;39.63;;;1.40;99.90;;;;;;5007491;28;20042;-77
2021/12/27 09:38:18;;;;;;;86.60;37.55;;;1.40;99.90;;;;;;4990362;28;20044;-77
2021/12/27 09:40:44;;;;;;;102.75;39.38;;;1.50;99.90;;;;;;5009118;28;20478;-77
2021/12/27 09:43:11;;;;;;;103.25;42.65;;;1.50;99.90;;;;;;5008922;28;20791;-77
2021/12/27 09:45:38;;;;;;;91.88;39.95;;;1.50;99.90;;;;;;4975100;28;20046;-78
2021/12/27 09:48:05;;;;;;;93.97;35.40;;;1.50;99.90;;;;;;5026100;28;20046;-78
2021/12/27 09:50:44;;;;;;;106.65;39.35;;;1.60;99.90;;;;;;4993003;28;20049;-77
2021/12/27 09:53:11;;;;;;;105.50;41.13;;;1.60;99.90;;;;;;5010068;28;20080;-79
2021/12/27 09:55:37;;;;;;;127.53;42.35;;;1.70;99.90;;;;;;4976727;28;20498;-77
2021/12/27 09:58:05;;;;;;;104.50;36.20;;;1.70;99.90;;;;;;5009847;28;20042;-77
2021/12/27 10:00:33;;;;;;;104.60;39.78;;;1.70;99.90;;;;;;4992477;28;20037;-77
2021/12/27 10:02:59;;;;;;;108.00;41.05;;;1.70;99.90;;;;;;4992533;28;20459;-77
2021/12/27 10:05:28;;;;;;;126.88;45.08;;;1.80;99.90;;;;;;5026274;28;20128;-77
2021/12/27 10:07:56;;;;;;;104.75;38.95;;;1.80;99.90;;;;;;5026157;28;20062;-78
2021/12/27 10:10:22;;;;;;;100.25;39.78;;;1.80;99.90;;;;;;5009959;28;20045;-77
2021/12/27 10:12:49;;;;;;;120.80;41.35;;;1.80;99.90;;;;;;5009741;28;20042;-77
2021/12/27 10:15:22;;;;;;;111.25;39.55;;;1.80;99.90;;;;;;5008133;28;20046;-77
2021/12/27 10:17:49;;;;;;;112.70;41.55;;;1.80;99.90;;;;;;4991559;28;20452;-77
2021/12/27 10:20:25;;;;;;;125.35;42.35;;;1.80;99.90;;;;;;5010222;28;20144;-77
2021/12/27 10:22:53;;;;;;;123.07;41.40;;;1.90;99.90;;;;;;5022900;28;20130;-77
2021/12/27 10:25:24;;;;;;;137.90;44.10;;;1.90;99.90;;;;;;5028169;28;20033;-77
2021/12/27 10:27:53;;;;;;;130.70;46.15;;;1.90;99.90;;;;;;5022161;28;20557;-79
2021/12/27 10:30:25;;;;;;;146.10;46.50;;;1.90;99.90;;;;;;4990068;28;20632;-79
2021/12/27 10:33:19;;;;;;;154.93;46.08;;;2.00;99.90;;;;;;5010330;28;20505;-78
2021/12/27 10:35:52;;;;;;;129.43;45.85;;;2.00;99.90;;;;;;5029279;28;20123;-78
2021/12/27 10:38:36;;;;;;;136.73;44.30;;;2.00;99.90;;;;;;5009813;28;20046;-77
2021/12/27 10:41:07;;;;;;;154.75;46.22;;;2.10;99.90;;;;;;5013287;28;20402;-78
2021/12/27 10:43:45;;;;;;;146.80;47.13;;;2.20;99.90;;;;;;5013945;28;20052;-79
2021/12/27 10:46:16;;;;;;;128.15;38.47;;;2.20;99.90;;;;;;5003650;28;20069;-79
2021/12/27 10:48:45;;;;;;;140.38;46.58;;;2.20;99.90;;;;;;5041363;28;20049;-78
2021/12/27 10:51:13;;;;;;;142.43;43.63;;;2.20;99.90;;;;;;4980815;28;20046;-79
2021/12/27 10:53:45;;;;;;;117.38;42.20;;;2.20;99.90;;;;;;4994039;28;20107;-78
2021/12/27 10:56:12;;;;;;;161.88;43.63;;;2.40;99.90;;;;;;5018946;28;20153;-80
2021/12/27 10:58:50;;;;;;;145.52;46.08;;;2.40;99.90;;;;;;5030818;28;20087;-79
2021/12/27 11:01:18;;;;;;;137.07;41.97;;;2.40;99.90;;;;;;5024191;28;20073;-79
2021/12/27 11:03:50;;;;;;;129.38;39.13;;;2.40;99.90;;;;;;5008361;28;20045;-79
2021/12/27 11:06:22;;;;;;;122.97;45.47;;;2.40;99.90;;;;;;5010744;28;20057;-78
2021/12/27 11:08:49;;;;;;;114.90;33.97;;;2.40;99.90;;;;;;5034852;28;20056;-77
2021/12/27 11:11:17;;;;;;;143.50;38.75;;;2.40;99.90;;;;;;5031069;28;20421;-78
2021/12/27 11:13:44;;;;;;;145.98;43.33;;;2.40;99.90;;;;;;5014241;28;20041;-78
2021/12/27 11:16:11;;;;;;;147.30;44.65;;;2.40;99.90;;;;;;5022394;28;20156;-79
2021/12/27 11:18:37;;;;;;;145.70;42.17;;;2.30;99.90;;;;;;5031077;28;20397;-84
2021/12/27 11:21:17;;;;;;;135.98;43.22;;;2.30;99.90;;;;;;4975456;28;20037;-79
2021/12/27 11:23:47;;;;;;;144.23;43.53;;;2.40;99.90;;;;;;5005857;28;20073;-78
2021/12/27 11:26:20;;;;;;;149.18;41.90;;;2.40;99.90;;;;;;5015476;28;20483;-77
2021/12/27 11:28:46;;;;;;;120.22;37.78;;;2.40;99.90;;;;;;4992186;28;20041;-77
2021/12/27 11:31:28;;;;;;;169.70;44.42;;;2.40;99.90;;;;;;4979047;28;20053;-77
2021/12/27 11:34:12;;;;;;;185.38;47.83;;;2.40;99.90;;;;;;4995801;28;20045;-77
2021/12/27 11:36:41;;;;;;;155.57;44.65;;;2.50;99.90;;;;;;4994768;28;20049;-77
2021/12/27 11:39:28;;;;;;;150.23;46.80;;;2.50;99.90;;;;;;4986243;28;20042;-78
2021/12/27 11:42:10;;;;;;;152.05;43.53;;;2.50;99.90;;;;;;5011432;28;20489;-77
2021/12/27 11:44:43;;;;;;;131.80;42.22;;;2.50;99.90;;;;;;5011608;28;20053;-78
2021/12/27 11:47:11;;;;;;;136.43;42.20;;;2.50;99.90;;;;;;5011499;28;20053;-77
2021/12/27 11:49:50;;;;;;;158.70;46.55;;;2.60;99.90;;;;;;4978384;28;20037;-77
2021/12/27 11:52:27;;;;;;;141.15;41.25;;;2.60;99.90;;;;;;4991366;28;20422;-78
2021/12/27 11:54:58;;;;;;;164.10;46.63;;;2.70;99.90;;;;;;5027404;28;20044;-78
2021/12/27 11:57:45;;;;;;;144.60;45.20;;;2.70;99.90;;;;;;4994852;28;20056;-78
2021/12/27 12:00:17;;;;;;;105.32;37.55;;;2.70;99.90;;;;;;5010922;28;20501;-78
2021/12/27 12:03:07;;;;;;;155.43;43.60;;;2.80;99.90;;;;;;5008878;28;20049;-78
2021/12/27 12:05:44;;;;;;;137.60;45.42;;;2.80;99.90;;;;;;5026389;28;20049;-77
2021/12/27 12:08:16;;;;;;;148.82;45.92;;;2.90;99.90;;;;;;4994845;28;20049;-78
2021/12/27 12:10:57;;;;;;;134.80;43.85;;;2.90;99.90;;;;;;5011085;28;20052;-78
2021/12/27 12:13:39;;;;;;;133.57;44.80;;;2.90;99.90;;;;;;5043235;28;20111;-78
2021/12/27 12:16:18;;;;;;;132.75;40.63;;;3.00;99.90;;;;;;5011561;28;20152;-77
2021/12/27 12:19:09;;;;;;;130.80;44.47;;;3.00;99.90;;;;;;5009443;28;20067;-77
2021/12/27 12:21:42;;;;;;;119.80;38.75;;;3.10;99.90;;;;;;5011439;28;20099;-77
2021/12/27 12:24:11;;;;;;;112.13;43.40;;;3.10;99.90;;;;;;4995273;28;20081;-78
2021/12/27 12:26:57;;;;;;;112.60;36.88;;;3.10;99.90;;;;;;4994531;28;20497;-78
2021/12/27 12:29:26;;;;;;;112.65;39.38;;;3.00;99.90;;;;;;5043158;28;20049;-78
2021/12/27 12:31:57;;;;;;;118.38;41.65;;;3.00;99.90;;;;;;4994080;28;20107;-78
2021/12/27 12:34:24;;;;;;;125.03;41.20;;;2.90;99.90;;;;;;5016367;28;20045;-78
2021/12/27 12:36:55;;;;;;;120.38;43.13;;;2.90;99.90;;;;;;5010845;28;20041;-75
2021/12/27 12:39:24;;;;;;;42.80;19.23;;;3.00;99.90;;;;;;5010421;28;20072;-78
2021/12/27 12:41:51;;;;;;;116.53;42.17;;;3.00;99.90;;;;;;5024445;28;20067;-78
2021/12/27 12:44:18;;;;;;;108.10;39.25;;;3.00;99.90;;;;;;5009971;28;20485;-78
2021/12/27 12:46:50;;;;;;;100.05;40.90;;;3.10;99.90;;;;;;4990904;28;20567;-77